sensor_id;sensor_type;location;lat;lon;timestamp;P1;durP1;ratioP1;P2;durP2;ratioP2
6997;SDS011;3539;47.982;12.238;2023-04-03T00:00:03;9.17;;;7.90;;
6997;SDS011;3539;47.982;12.238;2023-04-03T00:02:32;9.60;;;8.60;;
6997;SDS011;3539;47.982;12.238;2023-04-03T00:04:59;9.17;;;8.17;;
6997;SDS011;3539;47.982;12.238;2023-04-03T00:07:27;9.10;;;8.10;;
6997;SDS011;3539;47.982;12.238;2023-04-03T00:09:53;8.17;;;7.37;;
6997;SDS011;3539;47.982;12.238;2023-04-03T00:12:20;9.00;;;8.10;;
6997;SDS011;3539;47.982;12.238;2023-04-03T00:14:47;8.60;;;7.80;;
6997;SDS011;3539;47.982;12.238;2023-04-03T00:17:14;9.30;;;8.40;;
6997;SDS011;3539;47.982;12.238;2023-04-03T00:19:40;8.47;;;7.60;;
6997;SDS011;3539;47.982;12.238;2023-04-03T00:22:07;9.37;;;8.40;;
6997;SDS011;3539;47.982;12.238;2023-04-03T00:24:35;8.77;;;7.93;;
6997;SDS011;3539;47.982;12.238;2023-04-03T00:27:02;9.10;;;8.20;;
6997;SDS011;3539;47.982;12.238;2023-04-03T00:29:29;8.30;;;7.50;;
6997;SDS011;3539;47.982;12.238;2023-04-03T00:31:56;9.63;;;8.17;;
6997;SDS011;3539;47.982;12.238;2023-04-03T00:34:22;7.87;;;7.10;;
6997;SDS011;3539;47.982;12.238;2023-04-03T00:36:49;9.30;;;7.43;;
6997;SDS011;3539;47.982;12.238;2023-04-03T00:39:17;8.07;;;7.27;;
6997;SDS011;3539;47.982;12.238;2023-04-03T00:41:45;9.47;;;7.80;;
6997;SDS011;3539;47.982;12.238;2023-04-03T00:44:19;8.07;;;7.27;;
6997;SDS011;3539;47.982;12.238;2023-04-03T00:46:46;8.10;;;7.30;;
6997;SDS011;3539;47.982;12.238;2023-04-03T00:49:13;8.70;;;7.80;;
6997;SDS011;3539;47.982;12.238;2023-04-03T00:51:40;8.20;;;7.40;;
6997;SDS011;3539;47.982;12.238;2023-04-03T00:54:07;7.57;;;6.83;;
6997;SDS011;3539;47.982;12.238;2023-04-03T00:56:34;7.80;;;7.10;;
6997;SDS011;3539;47.982;12.238;2023-04-03T00:59:04;8.50;;;7.70;;
6997;SDS011;3539;47.982;12.238;2023-04-03T01:01:34;7.87;;;7.07;;
6997;SDS011;3539;47.982;12.238;2023-04-03T01:04:02;7.40;;;6.70;;
6997;SDS011;3539;47.982;12.238;2023-04-03T01:06:29;7.80;;;7.10;;
6997;SDS011;3539;47.982;12.238;2023-04-03T01:08:58;8.53;;;7.60;;
6997;SDS011;3539;47.982;12.238;2023-04-03T01:11:25;8.33;;;7.53;;
6997;SDS011;3539;47.982;12.238;2023-04-03T01:13:52;7.77;;;7.07;;
6997;SDS011;3539;47.982;12.238;2023-04-03T01:16:21;7.70;;;6.97;;
6997;SDS011;3539;47.982;12.238;2023-04-03T01:18:48;8.33;;;7.40;;
6997;SDS011;3539;47.982;12.238;2023-04-03T01:21:28;9.13;;;7.63;;
6997;SDS011;3539;47.982;12.238;2023-04-03T01:24:27;8.40;;;7.60;;
6997;SDS011;3539;47.982;12.238;2023-04-03T01:27:00;7.67;;;6.90;;
6997;SDS011;3539;47.982;12.238;2023-04-03T01:29:29;8.13;;;7.30;;
6997;SDS011;3539;47.982;12.238;2023-04-03T01:31:58;8.97;;;7.33;;
6997;SDS011;3539;47.982;12.238;2023-04-03T01:34:26;8.80;;;7.33;;
6997;SDS011;3539;47.982;12.238;2023-04-03T01:36:53;7.90;;;7.10;;
6997;SDS011;3539;47.982;12.238;2023-04-03T01:39:20;8.50;;;7.63;;
6997;SDS011;3539;47.982;12.238;2023-04-03T01:41:47;8.47;;;7.03;;
6997;SDS011;3539;47.982;12.238;2023-04-03T01:44:14;7.90;;;7.10;;
6997;SDS011;3539;47.982;12.238;2023-04-03T01:46:41;7.73;;;6.93;;
6997;SDS011;3539;47.982;12.238;2023-04-03T01:49:09;7.40;;;6.70;;
6997;SDS011;3539;47.982;12.238;2023-04-03T01:51:36;7.30;;;6.60;;
6997;SDS011;3539;47.982;12.238;2023-04-03T01:54:03;10.20;;;7.27;;
6997;SDS011;3539;47.982;12.238;2023-04-03T01:56:30;7.43;;;6.67;;
6997;SDS011;3539;47.982;12.238;2023-04-03T01:58:57;7.40;;;6.70;;
6997;SDS011;3539;47.982;12.238;2023-04-03T02:01:23;8.87;;;7.33;;
6997;SDS011;3539;47.982;12.238;2023-04-03T02:03:51;8.03;;;7.23;;
6997;SDS011;3539;47.982;12.238;2023-04-03T02:06:19;8.20;;;7.20;;
6997;SDS011;3539;47.982;12.238;2023-04-03T02:08:46;10.00;;;7.47;;
6997;SDS011;3539;47.982;12.238;2023-04-03T02:11:13;8.60;;;7.80;;
6997;SDS011;3539;47.982;12.238;2023-04-03T02:13:40;8.53;;;7.73;;
6997;SDS011;3539;47.982;12.238;2023-04-03T02:16:07;8.10;;;7.30;;
6997;SDS011;3539;47.982;12.238;2023-04-03T02:18:35;8.77;;;7.63;;
6997;SDS011;3539;47.982;12.238;2023-04-03T02:21:02;8.30;;;7.50;;
6997;SDS011;3539;47.982;12.238;2023-04-03T02:23:30;8.17;;;7.37;;
6997;SDS011;3539;47.982;12.238;2023-04-03T02:26:07;9.93;;;7.67;;
6997;SDS011;3539;47.982;12.238;2023-04-03T02:28:35;9.10;;;8.13;;
6997;SDS011;3539;47.982;12.238;2023-04-03T02:31:02;8.93;;;8.03;;
6997;SDS011;3539;47.982;12.238;2023-04-03T02:33:31;8.87;;;7.97;;
6997;SDS011;3539;47.982;12.238;2023-04-03T02:35:58;8.30;;;7.40;;
6997;SDS011;3539;47.982;12.238;2023-04-03T02:38:25;9.47;;;7.83;;
6997;SDS011;3539;47.982;12.238;2023-04-03T02:40:53;8.53;;;7.63;;
6997;SDS011;3539;47.982;12.238;2023-04-03T02:43:20;8.73;;;7.83;;
6997;SDS011;3539;47.982;12.238;2023-04-03T02:45:47;9.03;;;8.07;;
6997;SDS011;3539;47.982;12.238;2023-04-03T02:48:14;9.67;;;8.00;;
6997;SDS011;3539;47.982;12.238;2023-04-03T02:50:41;8.83;;;7.93;;
6997;SDS011;3539;47.982;12.238;2023-04-03T02:53:08;9.50;;;8.20;;
6997;SDS011;3539;47.982;12.238;2023-04-03T02:55:35;7.90;;;7.10;;
6997;SDS011;3539;47.982;12.238;2023-04-03T02:58:03;8.93;;;8.03;;
6997;SDS011;3539;47.982;12.238;2023-04-03T03:00:30;8.53;;;7.73;;
6997;SDS011;3539;47.982;12.238;2023-04-03T03:02:56;8.83;;;7.90;;
6997;SDS011;3539;47.982;12.238;2023-04-03T03:05:23;8.63;;;7.73;;
6997;SDS011;3539;47.982;12.238;2023-04-03T03:07:50;9.40;;;8.20;;
6997;SDS011;3539;47.982;12.238;2023-04-03T03:10:17;8.43;;;7.63;;
6997;SDS011;3539;47.982;12.238;2023-04-03T03:12:44;8.30;;;7.50;;
6997;SDS011;3539;47.982;12.238;2023-04-03T03:15:12;8.67;;;7.77;;
6997;SDS011;3539;47.982;12.238;2023-04-03T03:17:40;8.43;;;7.50;;
6997;SDS011;3539;47.982;12.238;2023-04-03T03:20:07;9.27;;;8.30;;
6997;SDS011;3539;47.982;12.238;2023-04-03T03:22:34;8.37;;;7.57;;
6997;SDS011;3539;47.982;12.238;2023-04-03T03:25:01;7.93;;;7.13;;
6997;SDS011;3539;47.982;12.238;2023-04-03T03:27:28;8.27;;;7.47;;
6997;SDS011;3539;47.982;12.238;2023-04-03T03:29:55;9.07;;;8.17;;
6997;SDS011;3539;47.982;12.238;2023-04-03T03:32:23;8.27;;;7.47;;
6997;SDS011;3539;47.982;12.238;2023-04-03T03:34:50;8.20;;;7.40;;
6997;SDS011;3539;47.982;12.238;2023-04-03T03:37:17;8.87;;;7.43;;
6997;SDS011;3539;47.982;12.238;2023-04-03T03:39:43;8.43;;;7.53;;
6997;SDS011;3539;47.982;12.238;2023-04-03T03:42:10;10.50;;;8.53;;
6997;SDS011;3539;47.982;12.238;2023-04-03T03:44:37;8.70;;;6.97;;
6997;SDS011;3539;47.982;12.238;2023-04-03T03:47:04;8.00;;;7.20;;
6997;SDS011;3539;47.982;12.238;2023-04-03T03:49:32;8.13;;;7.33;;
6997;SDS011;3539;47.982;12.238;2023-04-03T03:51:59;8.27;;;7.17;;
6997;SDS011;3539;47.982;12.238;2023-04-03T03:54:26;8.50;;;7.53;;
6997;SDS011;3539;47.982;12.238;2023-04-03T03:56:52;7.17;;;6.47;;
6997;SDS011;3539;47.982;12.238;2023-04-03T03:59:19;7.50;;;6.70;;
6997;SDS011;3539;47.982;12.238;2023-04-03T04:01:46;7.27;;;6.57;;
6997;SDS011;3539;47.982;12.238;2023-04-03T04:04:12;7.03;;;6.33;;
6997;SDS011;3539;47.982;12.238;2023-04-03T04:06:41;7.03;;;6.33;;
6997;SDS011;3539;47.982;12.238;2023-04-03T04:09:08;6.73;;;6.13;;
6997;SDS011;3539;47.982;12.238;2023-04-03T04:11:35;6.80;;;6.20;;
6997;SDS011;3539;47.982;12.238;2023-04-03T04:14:01;7.00;;;6.30;;
6997;SDS011;3539;47.982;12.238;2023-04-03T04:16:28;6.77;;;6.10;;
6997;SDS011;3539;47.982;12.238;2023-04-03T04:18:55;6.80;;;6.20;;
6997;SDS011;3539;47.982;12.238;2023-04-03T04:21:21;7.17;;;6.47;;
6997;SDS011;3539;47.982;12.238;2023-04-03T04:23:50;6.40;;;5.77;;
6997;SDS011;3539;47.982;12.238;2023-04-03T04:26:16;7.43;;;6.70;;
6997;SDS011;3539;47.982;12.238;2023-04-03T04:28:43;6.83;;;6.23;;
6997;SDS011;3539;47.982;12.238;2023-04-03T04:31:10;6.50;;;5.97;;
6997;SDS011;3539;47.982;12.238;2023-04-03T04:33:36;7.27;;;6.23;;
6997;SDS011;3539;47.982;12.238;2023-04-03T04:36:03;6.93;;;5.90;;
6997;SDS011;3539;47.982;12.238;2023-04-03T04:38:30;6.97;;;6.03;;
6997;SDS011;3539;47.982;12.238;2023-04-03T04:40:58;6.20;;;5.60;;
6997;SDS011;3539;47.982;12.238;2023-04-03T04:43:25;6.80;;;6.20;;
6997;SDS011;3539;47.982;12.238;2023-04-03T04:45:59;6.30;;;5.80;;
6997;SDS011;3539;47.982;12.238;2023-04-03T04:48:27;5.93;;;5.43;;
6997;SDS011;3539;47.982;12.238;2023-04-03T04:50:54;5.80;;;5.20;;
6997;SDS011;3539;47.982;12.238;2023-04-03T04:53:21;5.73;;;5.13;;
6997;SDS011;3539;47.982;12.238;2023-04-03T04:55:48;7.07;;;5.77;;
6997;SDS011;3539;47.982;12.238;2023-04-03T04:58:16;6.53;;;5.83;;
6997;SDS011;3539;47.982;12.238;2023-04-03T05:00:44;6.40;;;5.80;;
6997;SDS011;3539;47.982;12.238;2023-04-03T05:03:11;6.67;;;5.73;;
6997;SDS011;3539;47.982;12.238;2023-04-03T05:05:38;6.77;;;5.63;;
6997;SDS011;3539;47.982;12.238;2023-04-03T05:08:05;6.70;;;5.80;;
6997;SDS011;3539;47.982;12.238;2023-04-03T05:10:33;6.30;;;5.70;;
6997;SDS011;3539;47.982;12.238;2023-04-03T05:13:00;6.80;;;6.10;;
6997;SDS011;3539;47.982;12.238;2023-04-03T05:15:28;6.23;;;5.63;;
6997;SDS011;3539;47.982;12.238;2023-04-03T05:17:55;6.63;;;6.00;;
6997;SDS011;3539;47.982;12.238;2023-04-03T05:20:22;5.80;;;5.30;;
6997;SDS011;3539;47.982;12.238;2023-04-03T05:22:48;6.70;;;5.73;;
6997;SDS011;3539;47.982;12.238;2023-04-03T05:25:16;6.50;;;5.47;;
6997;SDS011;3539;47.982;12.238;2023-04-03T05:27:44;6.00;;;5.40;;
6997;SDS011;3539;47.982;12.238;2023-04-03T05:30:11;5.87;;;5.27;;
6997;SDS011;3539;47.982;12.238;2023-04-03T05:32:40;6.27;;;5.63;;
6997;SDS011;3539;47.982;12.238;2023-04-03T05:35:07;6.53;;;5.93;;
6997;SDS011;3539;47.982;12.238;2023-04-03T05:37:34;6.33;;;5.73;;
6997;SDS011;3539;47.982;12.238;2023-04-03T05:40:02;6.20;;;5.40;;
6997;SDS011;3539;47.982;12.238;2023-04-03T05:42:30;6.73;;;5.60;;
6997;SDS011;3539;47.982;12.238;2023-04-03T05:44:57;6.10;;;5.50;;
6997;SDS011;3539;47.982;12.238;2023-04-03T05:47:24;6.30;;;5.70;;
6997;SDS011;3539;47.982;12.238;2023-04-03T05:49:53;5.87;;;5.27;;
6997;SDS011;3539;47.982;12.238;2023-04-03T05:52:21;7.77;;;6.00;;
6997;SDS011;3539;47.982;12.238;2023-04-03T05:54:50;7.07;;;6.37;;
6997;SDS011;3539;47.982;12.238;2023-04-03T05:57:17;6.67;;;6.07;;
6997;SDS011;3539;47.982;12.238;2023-04-03T05:59:44;6.67;;;6.07;;
6997;SDS011;3539;47.982;12.238;2023-04-03T06:02:12;6.87;;;6.27;;
6997;SDS011;3539;47.982;12.238;2023-04-03T06:04:39;6.23;;;5.63;;
6997;SDS011;3539;47.982;12.238;2023-04-03T06:07:09;5.80;;;5.20;;
6997;SDS011;3539;47.982;12.238;2023-04-03T06:09:37;5.80;;;5.30;;
6997;SDS011;3539;47.982;12.238;2023-04-03T06:12:05;5.80;;;5.30;;
6997;SDS011;3539;47.982;12.238;2023-04-03T06:14:32;6.33;;;5.73;;
6997;SDS011;3539;47.982;12.238;2023-04-03T06:16:58;6.47;;;5.50;;
6997;SDS011;3539;47.982;12.238;2023-04-03T06:19:26;6.20;;;5.63;;
6997;SDS011;3539;47.982;12.238;2023-04-03T06:21:53;6.37;;;5.73;;
6997;SDS011;3539;47.982;12.238;2023-04-03T06:24:21;6.67;;;5.30;;
6997;SDS011;3539;47.982;12.238;2023-04-03T06:26:50;5.73;;;5.13;;
6997;SDS011;3539;47.982;12.238;2023-04-03T06:29:17;6.00;;;5.40;;
6997;SDS011;3539;47.982;12.238;2023-04-03T06:31:44;5.97;;;5.37;;
6997;SDS011;3539;47.982;12.238;2023-04-03T06:34:11;6.00;;;5.20;;
6997;SDS011;3539;47.982;12.238;2023-04-03T06:36:38;5.90;;;5.40;;
6997;SDS011;3539;47.982;12.238;2023-04-03T06:39:05;5.60;;;5.10;;
6997;SDS011;3539;47.982;12.238;2023-04-03T06:41:34;5.53;;;5.03;;
6997;SDS011;3539;47.982;12.238;2023-04-03T06:44:01;5.57;;;5.07;;
6997;SDS011;3539;47.982;12.238;2023-04-03T06:46:28;6.07;;;4.90;;
6997;SDS011;3539;47.982;12.238;2023-04-03T06:48:55;5.63;;;5.10;;
6997;SDS011;3539;47.982;12.238;2023-04-03T06:51:22;5.30;;;4.80;;
6997;SDS011;3539;47.982;12.238;2023-04-03T06:53:53;5.23;;;4.80;;
6997;SDS011;3539;47.982;12.238;2023-04-03T06:56:22;4.97;;;4.50;;
6997;SDS011;3539;47.982;12.238;2023-04-03T06:58:50;6.67;;;6.07;;
6997;SDS011;3539;47.982;12.238;2023-04-03T07:01:19;5.87;;;5.10;;
6997;SDS011;3539;47.982;12.238;2023-04-03T07:03:47;6.90;;;5.70;;
6997;SDS011;3539;47.982;12.238;2023-04-03T07:06:14;6.00;;;4.77;;
6997;SDS011;3539;47.982;12.238;2023-04-03T07:08:41;5.30;;;4.80;;
6997;SDS011;3539;47.982;12.238;2023-04-03T07:11:09;6.30;;;4.57;;
6997;SDS011;3539;47.982;12.238;2023-04-03T07:13:36;5.47;;;4.60;;
6997;SDS011;3539;47.982;12.238;2023-04-03T07:16:08;5.30;;;4.43;;
6997;SDS011;3539;47.982;12.238;2023-04-03T07:18:35;4.83;;;4.40;;
6997;SDS011;3539;47.982;12.238;2023-04-03T07:21:02;4.67;;;4.27;;
6997;SDS011;3539;47.982;12.238;2023-04-03T07:23:30;5.20;;;4.60;;
6997;SDS011;3539;47.982;12.238;2023-04-03T07:25:57;4.60;;;4.20;;
6997;SDS011;3539;47.982;12.238;2023-04-03T07:28:24;5.00;;;4.37;;
6997;SDS011;3539;47.982;12.238;2023-04-03T07:30:51;4.50;;;4.10;;
6997;SDS011;3539;47.982;12.238;2023-04-03T07:33:21;4.07;;;3.67;;
6997;SDS011;3539;47.982;12.238;2023-04-03T07:35:49;4.60;;;4.20;;
6997;SDS011;3539;47.982;12.238;2023-04-03T07:38:15;4.07;;;3.63;;
6997;SDS011;3539;47.982;12.238;2023-04-03T07:40:45;4.30;;;3.90;;
6997;SDS011;3539;47.982;12.238;2023-04-03T07:43:12;4.80;;;4.07;;
6997;SDS011;3539;47.982;12.238;2023-04-03T07:45:39;4.53;;;4.13;;
6997;SDS011;3539;47.982;12.238;2023-04-03T07:48:05;5.40;;;4.90;;
6997;SDS011;3539;47.982;12.238;2023-04-03T07:50:34;4.17;;;3.77;;
6997;SDS011;3539;47.982;12.238;2023-04-03T07:53:01;4.87;;;3.93;;
6997;SDS011;3539;47.982;12.238;2023-04-03T07:55:28;5.10;;;4.60;;
6997;SDS011;3539;47.982;12.238;2023-04-03T07:57:54;4.73;;;4.23;;
6997;SDS011;3539;47.982;12.238;2023-04-03T08:00:21;4.07;;;3.70;;
6997;SDS011;3539;47.982;12.238;2023-04-03T08:02:48;4.27;;;3.87;;
6997;SDS011;3539;47.982;12.238;2023-04-03T08:05:16;4.37;;;3.97;;
6997;SDS011;3539;47.982;12.238;2023-04-03T08:07:45;4.30;;;3.80;;
6997;SDS011;3539;47.982;12.238;2023-04-03T08:10:11;5.13;;;3.60;;
6997;SDS011;3539;47.982;12.238;2023-04-03T08:12:38;5.50;;;4.40;;
6997;SDS011;3539;47.982;12.238;2023-04-03T08:15:05;5.63;;;3.73;;
6997;SDS011;3539;47.982;12.238;2023-04-03T08:17:33;4.60;;;3.70;;
6997;SDS011;3539;47.982;12.238;2023-04-03T08:20:00;3.90;;;3.50;;
6997;SDS011;3539;47.982;12.238;2023-04-03T08:22:27;3.57;;;3.27;;
6997;SDS011;3539;47.982;12.238;2023-04-03T08:24:55;4.87;;;3.60;;
6997;SDS011;3539;47.982;12.238;2023-04-03T08:27:22;4.10;;;3.70;;
6997;SDS011;3539;47.982;12.238;2023-04-03T08:29:49;3.80;;;3.40;;
6997;SDS011;3539;47.982;12.238;2023-04-03T08:32:16;4.03;;;3.40;;
6997;SDS011;3539;47.982;12.238;2023-04-03T08:34:43;5.43;;;3.43;;
6997;SDS011;3539;47.982;12.238;2023-04-03T08:37:11;4.00;;;3.50;;
6997;SDS011;3539;47.982;12.238;2023-04-03T08:39:38;7.03;;;3.80;;
6997;SDS011;3539;47.982;12.238;2023-04-03T08:42:10;4.17;;;3.77;;
6997;SDS011;3539;47.982;12.238;2023-04-03T08:44:44;4.57;;;3.83;;
6997;SDS011;3539;47.982;12.238;2023-04-03T08:47:17;4.27;;;3.87;;
6997;SDS011;3539;47.982;12.238;2023-04-03T08:49:48;3.83;;;3.37;;
6997;SDS011;3539;47.982;12.238;2023-04-03T08:52:19;4.37;;;3.93;;
6997;SDS011;3539;47.982;12.238;2023-04-03T08:54:50;4.37;;;3.70;;
6997;SDS011;3539;47.982;12.238;2023-04-03T08:57:20;4.03;;;3.67;;
6997;SDS011;3539;47.982;12.238;2023-04-03T08:59:54;4.27;;;3.60;;
6997;SDS011;3539;47.982;12.238;2023-04-03T09:02:24;4.10;;;3.80;;
6997;SDS011;3539;47.982;12.238;2023-04-03T09:04:52;5.23;;;4.40;;
6997;SDS011;3539;47.982;12.238;2023-04-03T09:07:22;5.20;;;4.60;;
6997;SDS011;3539;47.982;12.238;2023-04-03T09:09:51;4.90;;;4.50;;
6997;SDS011;3539;47.982;12.238;2023-04-03T09:12:21;4.10;;;3.80;;
6997;SDS011;3539;47.982;12.238;2023-04-03T09:14:54;4.17;;;3.77;;
6997;SDS011;3539;47.982;12.238;2023-04-03T09:17:27;4.73;;;3.83;;
6997;SDS011;3539;47.982;12.238;2023-04-03T09:20:03;4.30;;;3.90;;
6997;SDS011;3539;47.982;12.238;2023-04-03T09:22:34;4.43;;;3.47;;
6997;SDS011;3539;47.982;12.238;2023-04-03T09:25:05;4.10;;;3.70;;
6997;SDS011;3539;47.982;12.238;2023-04-03T09:27:38;4.63;;;3.57;;
6997;SDS011;3539;47.982;12.238;2023-04-03T09:30:06;4.20;;;3.77;;
6997;SDS011;3539;47.982;12.238;2023-04-03T09:32:35;3.80;;;3.43;;
6997;SDS011;3539;47.982;12.238;2023-04-03T09:35:03;4.43;;;3.27;;
6997;SDS011;3539;47.982;12.238;2023-04-03T09:37:35;3.47;;;3.17;;
6997;SDS011;3539;47.982;12.238;2023-04-03T09:40:04;3.87;;;3.17;;
6997;SDS011;3539;47.982;12.238;2023-04-03T09:42:32;4.27;;;3.30;;
6997;SDS011;3539;47.982;12.238;2023-04-03T09:45:01;4.00;;;3.50;;
6997;SDS011;3539;47.982;12.238;2023-04-03T09:47:30;3.67;;;3.30;;
6997;SDS011;3539;47.982;12.238;2023-04-03T09:50:10;4.10;;;3.00;;
6997;SDS011;3539;47.982;12.238;2023-04-03T09:52:46;3.17;;;2.87;;
6997;SDS011;3539;47.982;12.238;2023-04-03T09:55:14;3.07;;;2.77;;
6997;SDS011;3539;47.982;12.238;2023-04-03T09:57:42;3.20;;;2.90;;
6997;SDS011;3539;47.982;12.238;2023-04-03T10:00:20;3.77;;;3.10;;
6997;SDS011;3539;47.982;12.238;2023-04-03T10:02:50;4.80;;;3.13;;
6997;SDS011;3539;47.982;12.238;2023-04-03T10:05:28;3.10;;;2.80;;
6997;SDS011;3539;47.982;12.238;2023-04-03T10:08:08;4.53;;;3.10;;
6997;SDS011;3539;47.982;12.238;2023-04-03T10:10:37;3.07;;;2.87;;
6997;SDS011;3539;47.982;12.238;2023-04-03T10:13:05;3.10;;;2.80;;
6997;SDS011;3539;47.982;12.238;2023-04-03T10:15:37;3.87;;;3.17;;
6997;SDS011;3539;47.982;12.238;2023-04-03T10:18:08;3.67;;;2.67;;
6997;SDS011;3539;47.982;12.238;2023-04-03T10:20:47;3.23;;;2.87;;
6997;SDS011;3539;47.982;12.238;2023-04-03T10:23:17;3.10;;;2.80;;
6997;SDS011;3539;47.982;12.238;2023-04-03T10:25:48;2.63;;;2.43;;
6997;SDS011;3539;47.982;12.238;2023-04-03T10:28:21;4.33;;;3.00;;
6997;SDS011;3539;47.982;12.238;2023-04-03T10:30:55;3.53;;;2.70;;
6997;SDS011;3539;47.982;12.238;2023-04-03T10:33:31;3.27;;;2.97;;
6997;SDS011;3539;47.982;12.238;2023-04-03T10:36:11;3.43;;;3.03;;
6997;SDS011;3539;47.982;12.238;2023-04-03T10:38:44;3.30;;;3.00;;
6997;SDS011;3539;47.982;12.238;2023-04-03T10:41:16;4.13;;;3.20;;
6997;SDS011;3539;47.982;12.238;2023-04-03T10:43:47;3.83;;;3.07;;
6997;SDS011;3539;47.982;12.238;2023-04-03T10:46:20;3.30;;;2.87;;
6997;SDS011;3539;47.982;12.238;2023-04-03T10:48:53;3.53;;;3.20;;
6997;SDS011;3539;47.982;12.238;2023-04-03T10:51:41;3.77;;;3.00;;
6997;SDS011;3539;47.982;12.238;2023-04-03T10:54:11;3.90;;;3.40;;
6997;SDS011;3539;47.982;12.238;2023-04-03T10:56:39;3.37;;;3.07;;
6997;SDS011;3539;47.982;12.238;2023-04-03T10:59:12;4.70;;;3.30;;
6997;SDS011;3539;47.982;12.238;2023-04-03T11:01:46;3.23;;;2.93;;
6997;SDS011;3539;47.982;12.238;2023-04-03T11:04:16;3.70;;;2.97;;
6997;SDS011;3539;47.982;12.238;2023-04-03T11:06:45;2.83;;;2.57;;
6997;SDS011;3539;47.982;12.238;2023-04-03T11:09:16;3.10;;;2.80;;
6997;SDS011;3539;47.982;12.238;2023-04-03T11:11:47;3.13;;;2.83;;
6997;SDS011;3539;47.982;12.238;2023-04-03T11:14:20;5.17;;;3.43;;
6997;SDS011;3539;47.982;12.238;2023-04-03T11:16:53;3.80;;;2.83;;
6997;SDS011;3539;47.982;12.238;2023-04-03T11:19:38;3.63;;;3.03;;
6997;SDS011;3539;47.982;12.238;2023-04-03T11:22:10;5.03;;;3.10;;
6997;SDS011;3539;47.982;12.238;2023-04-03T11:24:42;3.40;;;2.87;;
6997;SDS011;3539;47.982;12.238;2023-04-03T11:27:11;3.20;;;2.90;;
6997;SDS011;3539;47.982;12.238;2023-04-03T11:29:43;3.53;;;2.87;;
6997;SDS011;3539;47.982;12.238;2023-04-03T11:32:20;4.00;;;3.43;;
6997;SDS011;3539;47.982;12.238;2023-04-03T11:34:58;3.20;;;2.90;;
6997;SDS011;3539;47.982;12.238;2023-04-03T11:37:28;3.67;;;3.10;;
6997;SDS011;3539;47.982;12.238;2023-04-03T11:39:59;3.90;;;3.47;;
6997;SDS011;3539;47.982;12.238;2023-04-03T11:42:30;3.63;;;3.30;;
6997;SDS011;3539;47.982;12.238;2023-04-03T11:45:16;3.47;;;3.17;;
6997;SDS011;3539;47.982;12.238;2023-04-03T11:47:51;4.03;;;3.10;;
6997;SDS011;3539;47.982;12.238;2023-04-03T11:50:30;3.57;;;3.00;;
6997;SDS011;3539;47.982;12.238;2023-04-03T11:53:02;3.80;;;3.00;;
6997;SDS011;3539;47.982;12.238;2023-04-03T11:58:26;3.03;;;2.73;;
6997;SDS011;3539;47.982;12.238;2023-04-03T12:00:55;3.87;;;2.90;;
6997;SDS011;3539;47.982;12.238;2023-04-03T12:12:55;3.73;;;2.83;;
6997;SDS011;3539;47.982;12.238;2023-04-03T12:21:21;3.03;;;2.53;;
6997;SDS011;3539;47.982;12.238;2023-04-03T12:23:59;2.40;;;2.20;;
6997;SDS011;3539;47.982;12.238;2023-04-03T12:26:30;2.90;;;2.43;;
6997;SDS011;3539;47.982;12.238;2023-04-03T12:28:58;4.43;;;2.63;;
6997;SDS011;3539;47.982;12.238;2023-04-03T12:31:32;2.57;;;2.37;;
6997;SDS011;3539;47.982;12.238;2023-04-03T12:34:10;3.70;;;2.60;;
6997;SDS011;3539;47.982;12.238;2023-04-03T12:36:46;2.97;;;2.60;;
6997;SDS011;3539;47.982;12.238;2023-04-03T12:42:13;2.63;;;2.40;;
6997;SDS011;3539;47.982;12.238;2023-04-03T12:44:46;3.13;;;2.73;;
6997;SDS011;3539;47.982;12.238;2023-04-03T12:47:25;2.70;;;2.17;;
6997;SDS011;3539;47.982;12.238;2023-04-03T12:49:57;2.80;;;2.60;;
6997;SDS011;3539;47.982;12.238;2023-04-03T12:52:37;2.80;;;2.50;;
6997;SDS011;3539;47.982;12.238;2023-04-03T12:55:14;4.50;;;2.57;;
6997;SDS011;3539;47.982;12.238;2023-04-03T12:57:43;2.40;;;2.20;;
6997;SDS011;3539;47.982;12.238;2023-04-03T13:00:21;3.37;;;2.27;;
6997;SDS011;3539;47.982;12.238;2023-04-03T13:02:54;3.30;;;2.47;;
6997;SDS011;3539;47.982;12.238;2023-04-03T13:05:21;2.60;;;2.30;;
6997;SDS011;3539;47.982;12.238;2023-04-03T13:07:49;4.27;;;2.47;;
6997;SDS011;3539;47.982;12.238;2023-04-03T13:10:18;3.03;;;2.43;;
6997;SDS011;3539;47.982;12.238;2023-04-03T13:12:48;2.90;;;2.60;;
6997;SDS011;3539;47.982;12.238;2023-04-03T13:15:17;2.43;;;2.23;;
6997;SDS011;3539;47.982;12.238;2023-04-03T13:17:45;2.40;;;2.20;;
6997;SDS011;3539;47.982;12.238;2023-04-03T13:20:17;3.07;;;2.30;;
6997;SDS011;3539;47.982;12.238;2023-04-03T13:22:50;3.33;;;2.77;;
6997;SDS011;3539;47.982;12.238;2023-04-03T13:25:20;4.23;;;2.67;;
6997;SDS011;3539;47.982;12.238;2023-04-03T13:27:49;2.70;;;2.37;;
6997;SDS011;3539;47.982;12.238;2023-04-03T13:30:19;4.90;;;4.07;;
6997;SDS011;3539;47.982;12.238;2023-04-03T13:32:48;7.00;;;5.23;;
6997;SDS011;3539;47.982;12.238;2023-04-03T13:35:25;5.73;;;3.47;;
6997;SDS011;3539;47.982;12.238;2023-04-03T13:37:58;4.10;;;3.33;;
6997;SDS011;3539;47.982;12.238;2023-04-03T13:40:26;4.63;;;3.00;;
6997;SDS011;3539;47.982;12.238;2023-04-03T13:43:02;5.77;;;2.93;;
6997;SDS011;3539;47.982;12.238;2023-04-03T13:45:32;5.57;;;3.00;;
6997;SDS011;3539;47.982;12.238;2023-04-03T13:48:14;4.27;;;3.20;;
6997;SDS011;3539;47.982;12.238;2023-04-03T13:50:50;2.90;;;2.60;;
6997;SDS011;3539;47.982;12.238;2023-04-03T13:53:20;5.70;;;2.87;;
6997;SDS011;3539;47.982;12.238;2023-04-03T13:55:55;3.00;;;2.60;;
6997;SDS011;3539;47.982;12.238;2023-04-03T13:58:35;2.90;;;2.60;;
6997;SDS011;3539;47.982;12.238;2023-04-03T14:01:07;3.50;;;2.63;;
6997;SDS011;3539;47.982;12.238;2023-04-03T14:03:42;3.53;;;2.80;;
6997;SDS011;3539;47.982;12.238;2023-04-03T14:06:12;3.07;;;2.70;;
6997;SDS011;3539;47.982;12.238;2023-04-03T14:08:40;4.20;;;2.63;;
6997;SDS011;3539;47.982;12.238;2023-04-03T14:11:08;3.40;;;2.80;;
6997;SDS011;3539;47.982;12.238;2023-04-03T14:13:39;8.77;;;5.27;;
6997;SDS011;3539;47.982;12.238;2023-04-03T14:16:06;4.80;;;3.43;;
6997;SDS011;3539;47.982;12.238;2023-04-03T14:18:33;4.87;;;4.20;;
6997;SDS011;3539;47.982;12.238;2023-04-03T14:21:01;5.53;;;3.43;;
6997;SDS011;3539;47.982;12.238;2023-04-03T14:23:28;3.63;;;2.80;;
6997;SDS011;3539;47.982;12.238;2023-04-03T14:25:56;3.43;;;3.10;;
6997;SDS011;3539;47.982;12.238;2023-04-03T14:28:23;3.43;;;2.50;;
6997;SDS011;3539;47.982;12.238;2023-04-03T14:30:52;3.90;;;2.40;;
6997;SDS011;3539;47.982;12.238;2023-04-03T14:33:19;4.57;;;3.60;;
6997;SDS011;3539;47.982;12.238;2023-04-03T14:35:48;3.73;;;2.87;;
6997;SDS011;3539;47.982;12.238;2023-04-03T14:38:20;3.90;;;3.07;;
6997;SDS011;3539;47.982;12.238;2023-04-03T14:40:48;4.00;;;2.93;;
6997;SDS011;3539;47.982;12.238;2023-04-03T14:43:15;2.83;;;2.60;;
6997;SDS011;3539;47.982;12.238;2023-04-03T14:45:44;3.87;;;2.50;;
6997;SDS011;3539;47.982;12.238;2023-04-03T14:48:15;4.77;;;3.10;;
6997;SDS011;3539;47.982;12.238;2023-04-03T14:50:45;6.23;;;4.77;;
6997;SDS011;3539;47.982;12.238;2023-04-03T14:53:12;3.20;;;2.53;;
6997;SDS011;3539;47.982;12.238;2023-04-03T14:55:41;4.10;;;2.30;;
6997;SDS011;3539;47.982;12.238;2023-04-03T14:58:13;3.70;;;2.57;;
6997;SDS011;3539;47.982;12.238;2023-04-03T15:00:41;4.47;;;2.83;;
6997;SDS011;3539;47.982;12.238;2023-04-03T15:03:13;2.90;;;2.63;;
6997;SDS011;3539;47.982;12.238;2023-04-03T15:05:41;5.07;;;4.10;;
6997;SDS011;3539;47.982;12.238;2023-04-03T15:08:13;4.43;;;3.83;;
6997;SDS011;3539;47.982;12.238;2023-04-03T15:10:44;3.73;;;2.83;;
6997;SDS011;3539;47.982;12.238;2023-04-03T15:13:12;5.50;;;3.20;;
6997;SDS011;3539;47.982;12.238;2023-04-03T15:15:39;3.57;;;3.00;;
6997;SDS011;3539;47.982;12.238;2023-04-03T15:18:06;2.77;;;2.50;;
6997;SDS011;3539;47.982;12.238;2023-04-03T15:20:34;3.50;;;2.97;;
6997;SDS011;3539;47.982;12.238;2023-04-03T15:23:01;4.13;;;2.70;;
6997;SDS011;3539;47.982;12.238;2023-04-03T15:25:29;3.77;;;2.70;;
6997;SDS011;3539;47.982;12.238;2023-04-03T15:27:56;4.23;;;2.73;;
6997;SDS011;3539;47.982;12.238;2023-04-03T15:30:25;5.20;;;3.10;;
6997;SDS011;3539;47.982;12.238;2023-04-03T15:32:52;5.70;;;3.53;;